sensor_id;sensor_type;location;lat;lon;timestamp;P1;durP1;ratioP1;P2;durP2;ratioP2
22046;SDS011;11187;49.412;20.956;2022-12-11T00:02:44;19.63;;;18.30;;
22046;SDS011;11187;49.412;20.956;2022-12-11T00:05:17;20.85;;;19.45;;
22046;SDS011;11187;49.412;20.956;2022-12-11T00:08:12;21.08;;;19.50;;
22046;SDS011;11187;49.412;20.956;2022-12-11T00:11:15;20.23;;;18.73;;
22046;SDS011;11187;49.412;20.956;2022-12-11T00:13:48;20.77;;;19.38;;
22046;SDS011;11187;49.412;20.956;2022-12-11T00:16:35;20.08;;;18.50;;
22046;SDS011;11187;49.412;20.956;2022-12-11T00:19:08;20.75;;;19.33;;
22046;SDS011;11187;49.412;20.956;2022-12-11T00:21:55;19.50;;;18.30;;
22046;SDS011;11187;49.412;20.956;2022-12-11T00:24:28;20.25;;;18.95;;
22046;SDS011;11187;49.412;20.956;2022-12-11T00:27:22;20.40;;;19.10;;
22046;SDS011;11187;49.412;20.956;2022-12-11T00:29:55;16.63;;;15.45;;
22046;SDS011;11187;49.412;20.956;2022-12-11T00:32:42;15.80;;;14.65;;
22046;SDS011;11187;49.412;20.956;2022-12-11T00:35:15;14.73;;;13.68;;
22046;SDS011;11187;49.412;20.956;2022-12-11T00:38:02;15.95;;;14.75;;
22046;SDS011;11187;49.412;20.956;2022-12-11T00:40:57;16.27;;;15.10;;
22046;SDS011;11187;49.412;20.956;2022-12-11T00:43:30;17.10;;;15.80;;
22046;SDS011;11187;49.412;20.956;2022-12-11T00:46:24;16.65;;;15.55;;
22046;SDS011;11187;49.412;20.956;2022-12-11T00:49:18;17.27;;;15.98;;
22046;SDS011;11187;49.412;20.956;2022-12-11T00:51:51;15.45;;;14.45;;
22046;SDS011;11187;49.412;20.956;2022-12-11T00:54:45;17.75;;;15.20;;
22046;SDS011;11187;49.412;20.956;2022-12-11T00:57:18;16.40;;;15.32;;
22046;SDS011;11187;49.412;20.956;2022-12-11T01:00:05;16.25;;;15.13;;
22046;SDS011;11187;49.412;20.956;2022-12-11T01:02:38;15.43;;;14.32;;
22046;SDS011;11187;49.412;20.956;2022-12-11T01:05:25;15.50;;;14.40;;
22046;SDS011;11187;49.412;20.956;2022-12-11T01:07:58;15.65;;;14.45;;
22046;SDS011;11187;49.412;20.956;2022-12-11T01:10:45;17.08;;;15.45;;
22046;SDS011;11187;49.412;20.956;2022-12-11T01:13:18;17.98;;;16.40;;
22046;SDS011;11187;49.412;20.956;2022-12-11T01:16:09;16.42;;;15.15;;
22046;SDS011;11187;49.412;20.956;2022-12-11T01:18:46;16.85;;;15.35;;
22046;SDS011;11187;49.412;20.956;2022-12-11T01:21:40;16.48;;;15.07;;
22046;SDS011;11187;49.412;20.956;2022-12-11T01:24:13;17.42;;;16.08;;
22046;SDS011;11187;49.412;20.956;2022-12-11T01:27:00;17.33;;;15.73;;
22046;SDS011;11187;49.412;20.956;2022-12-11T01:29:33;17.05;;;15.48;;
22046;SDS011;11187;49.412;20.956;2022-12-11T01:32:20;17.10;;;15.90;;
22046;SDS011;11187;49.412;20.956;2022-12-11T01:34:53;16.85;;;15.65;;
22046;SDS011;11187;49.412;20.956;2022-12-11T01:37:40;17.38;;;16.17;;
22046;SDS011;11187;49.412;20.956;2022-12-11T01:40:34;19.13;;;17.83;;
22046;SDS011;11187;49.412;20.956;2022-12-11T01:43:28;31.15;;;17.02;;
22046;SDS011;11187;49.412;20.956;2022-12-11T01:46:01;16.92;;;15.77;;
22046;SDS011;11187;49.412;20.956;2022-12-11T01:48:55;17.95;;;16.50;;
22046;SDS011;11187;49.412;20.956;2022-12-11T01:52:05;19.02;;;17.75;;
22046;SDS011;11187;49.412;20.956;2022-12-11T01:55:03;17.85;;;16.65;;
22046;SDS011;11187;49.412;20.956;2022-12-11T01:57:38;17.58;;;16.33;;
22046;SDS011;11187;49.412;20.956;2022-12-11T02:00:28;18.13;;;16.77;;
22046;SDS011;11187;49.412;20.956;2022-12-11T02:03:01;17.67;;;16.48;;
22046;SDS011;11187;49.412;20.956;2022-12-11T02:05:58;16.98;;;15.68;;
22046;SDS011;11187;49.412;20.956;2022-12-11T02:08:53;17.88;;;16.42;;
22046;SDS011;11187;49.412;20.956;2022-12-11T02:11:33;18.38;;;16.88;;
22046;SDS011;11187;49.412;20.956;2022-12-11T02:14:37;18.60;;;17.10;;
22046;SDS011;11187;49.412;20.956;2022-12-11T02:17:47;18.00;;;16.65;;
22046;SDS011;11187;49.412;20.956;2022-12-11T02:21:12;18.25;;;17.00;;
22046;SDS011;11187;49.412;20.956;2022-12-11T02:24:25;18.45;;;17.20;;
22046;SDS011;11187;49.412;20.956;2022-12-11T02:30:21;18.98;;;17.50;;
22046;SDS011;11187;49.412;20.956;2022-12-11T02:32:56;20.52;;;18.73;;
22046;SDS011;11187;49.412;20.956;2022-12-11T02:35:44;19.75;;;18.35;;
22046;SDS011;11187;49.412;20.956;2022-12-11T02:38:25;19.45;;;18.02;;
22046;SDS011;11187;49.412;20.956;2022-12-11T02:41:23;18.15;;;16.85;;
22046;SDS011;11187;49.412;20.956;2022-12-11T02:44:19;20.13;;;18.63;;
22046;SDS011;11187;49.412;20.956;2022-12-11T02:46:56;18.55;;;17.23;;
22046;SDS011;11187;49.412;20.956;2022-12-11T02:49:45;21.08;;;19.60;;
22046;SDS011;11187;49.412;20.956;2022-12-11T02:52:20;20.55;;;19.17;;
22046;SDS011;11187;49.412;20.956;2022-12-11T02:55:11;20.55;;;19.15;;
22046;SDS011;11187;49.412;20.956;2022-12-11T02:57:59;20.17;;;18.60;;
22046;SDS011;11187;49.412;20.956;2022-12-11T03:01:00;19.55;;;18.02;;
22046;SDS011;11187;49.412;20.956;2022-12-11T03:03:33;18.67;;;17.38;;
22046;SDS011;11187;49.412;20.956;2022-12-11T03:06:30;18.60;;;17.25;;
22046;SDS011;11187;49.412;20.956;2022-12-11T03:09:07;19.85;;;18.27;;
22046;SDS011;11187;49.412;20.956;2022-12-11T03:11:54;18.92;;;17.50;;
22046;SDS011;11187;49.412;20.956;2022-12-11T03:14:27;20.80;;;19.13;;
22046;SDS011;11187;49.412;20.956;2022-12-11T03:17:25;21.67;;;20.17;;
22046;SDS011;11187;49.412;20.956;2022-12-11T03:23:31;21.48;;;19.98;;
22046;SDS011;11187;49.412;20.956;2022-12-11T03:26:11;21.23;;;19.73;;
22046;SDS011;11187;49.412;20.956;2022-12-11T03:29:04;20.73;;;19.38;;
22046;SDS011;11187;49.412;20.956;2022-12-11T03:31:49;21.80;;;20.10;;
22046;SDS011;11187;49.412;20.956;2022-12-11T03:34:43;22.20;;;20.60;;
22046;SDS011;11187;49.412;20.956;2022-12-11T03:37:25;21.20;;;19.70;;
22046;SDS011;11187;49.412;20.956;2022-12-11T03:40:15;21.35;;;19.80;;
22046;SDS011;11187;49.412;20.956;2022-12-11T03:42:51;22.50;;;20.95;;
22046;SDS011;11187;49.412;20.956;2022-12-11T03:45:48;21.75;;;20.35;;
22046;SDS011;11187;49.412;20.956;2022-12-11T03:48:44;21.80;;;20.25;;
22046;SDS011;11187;49.412;20.956;2022-12-11T03:51:40;20.90;;;19.30;;
22046;SDS011;11187;49.412;20.956;2022-12-11T03:54:16;20.98;;;19.60;;
22046;SDS011;11187;49.412;20.956;2022-12-11T03:57:12;21.80;;;20.17;;
22046;SDS011;11187;49.412;20.956;2022-12-11T03:59:48;21.05;;;19.75;;
22046;SDS011;11187;49.412;20.956;2022-12-11T04:02:42;22.58;;;20.92;;
22046;SDS011;11187;49.412;20.956;2022-12-11T04:05:16;21.27;;;19.67;;
22046;SDS011;11187;49.412;20.956;2022-12-11T04:08:03;20.60;;;19.10;;
22046;SDS011;11187;49.412;20.956;2022-12-11T04:10:36;20.02;;;18.55;;
22046;SDS011;11187;49.412;20.956;2022-12-11T04:13:30;21.27;;;19.58;;
22046;SDS011;11187;49.412;20.956;2022-12-11T04:16:04;21.88;;;20.33;;
22046;SDS011;11187;49.412;20.956;2022-12-11T04:18:50;22.25;;;20.60;;
22046;SDS011;11187;49.412;20.956;2022-12-11T04:21:41;20.45;;;19.15;;
22046;SDS011;11187;49.412;20.956;2022-12-11T04:24:53;20.08;;;18.58;;
22046;SDS011;11187;49.412;20.956;2022-12-11T04:27:47;21.33;;;19.98;;
22046;SDS011;11187;49.412;20.956;2022-12-11T04:30:21;21.05;;;19.55;;
22046;SDS011;11187;49.412;20.956;2022-12-11T04:33:17;19.77;;;18.48;;
22046;SDS011;11187;49.412;20.956;2022-12-11T04:35:51;20.65;;;19.25;;
22046;SDS011;11187;49.412;20.956;2022-12-11T04:38:44;20.67;;;19.13;;
22046;SDS011;11187;49.412;20.956;2022-12-11T04:41:38;21.95;;;20.40;;
22046;SDS011;11187;49.412;20.956;2022-12-11T04:44:12;22.30;;;20.73;;
22046;SDS011;11187;49.412;20.956;2022-12-11T04:46:59;20.35;;;18.95;;
22046;SDS011;11187;49.412;20.956;2022-12-11T04:49:32;20.00;;;18.60;;
22046;SDS011;11187;49.412;20.956;2022-12-11T04:52:19;21.02;;;19.55;;
22046;SDS011;11187;49.412;20.956;2022-12-11T04:54:52;19.90;;;18.42;;
22046;SDS011;11187;49.412;20.956;2022-12-11T04:57:39;20.42;;;18.92;;
22046;SDS011;11187;49.412;20.956;2022-12-11T05:00:13;20.70;;;19.13;;
22046;SDS011;11187;49.412;20.956;2022-12-11T05:03:07;20.08;;;18.63;;
22046;SDS011;11187;49.412;20.956;2022-12-11T05:05:45;19.90;;;18.40;;
22046;SDS011;11187;49.412;20.956;2022-12-11T05:08:33;21.40;;;19.90;;
22046;SDS011;11187;49.412;20.956;2022-12-11T05:11:10;21.85;;;20.25;;
22046;SDS011;11187;49.412;20.956;2022-12-11T05:13:58;21.35;;;19.85;;
22046;SDS011;11187;49.412;20.956;2022-12-11T05:16:31;19.98;;;18.48;;
22046;SDS011;11187;49.412;20.956;2022-12-11T05:19:18;20.50;;;18.90;;
22046;SDS011;11187;49.412;20.956;2022-12-11T05:21:51;22.75;;;21.05;;
22046;SDS011;11187;49.412;20.956;2022-12-11T05:24:38;21.92;;;20.25;;
22046;SDS011;11187;49.412;20.956;2022-12-11T05:27:11;22.83;;;21.02;;
22046;SDS011;11187;49.412;20.956;2022-12-11T05:29:58;23.08;;;21.17;;
22046;SDS011;11187;49.412;20.956;2022-12-11T05:32:31;22.33;;;20.63;;
22046;SDS011;11187;49.412;20.956;2022-12-11T05:35:11;21.52;;;19.83;;
22046;SDS011;11187;49.412;20.956;2022-12-11T05:37:51;21.33;;;19.33;;
22046;SDS011;11187;49.412;20.956;2022-12-11T05:40:54;21.52;;;20.00;;
22046;SDS011;11187;49.412;20.956;2022-12-11T05:43:54;21.08;;;19.58;;
22046;SDS011;11187;49.412;20.956;2022-12-11T05:46:28;22.20;;;20.23;;
22046;SDS011;11187;49.412;20.956;2022-12-11T05:49:15;23.40;;;20.80;;
22046;SDS011;11187;49.412;20.956;2022-12-11T05:51:56;22.63;;;20.85;;
22046;SDS011;11187;49.412;20.956;2022-12-11T05:54:42;21.67;;;19.73;;
22046;SDS011;11187;49.412;20.956;2022-12-11T05:57:15;22.27;;;20.40;;
22046;SDS011;11187;49.412;20.956;2022-12-11T06:00:11;23.58;;;21.45;;
22046;SDS011;11187;49.412;20.956;2022-12-11T06:02:44;22.77;;;20.73;;
22046;SDS011;11187;49.412;20.956;2022-12-11T06:05:38;21.73;;;20.02;;
22046;SDS011;11187;49.412;20.956;2022-12-11T06:08:33;22.00;;;20.23;;
22046;SDS011;11187;49.412;20.956;2022-12-11T06:11:07;24.05;;;22.05;;
22046;SDS011;11187;49.412;20.956;2022-12-11T06:14:01;22.40;;;20.50;;
22046;SDS011;11187;49.412;20.956;2022-12-11T06:16:36;22.95;;;21.13;;
22046;SDS011;11187;49.412;20.956;2022-12-11T06:19:23;21.33;;;19.60;;
22046;SDS011;11187;49.412;20.956;2022-12-11T06:22:02;22.00;;;20.35;;
22046;SDS011;11187;49.412;20.956;2022-12-11T06:24:55;23.15;;;21.20;;
22046;SDS011;11187;49.412;20.956;2022-12-11T06:27:49;23.80;;;22.00;;
22046;SDS011;11187;49.412;20.956;2022-12-11T06:30:43;22.33;;;20.63;;
22046;SDS011;11187;49.412;20.956;2022-12-11T06:33:37;21.85;;;20.02;;
22046;SDS011;11187;49.412;20.956;2022-12-11T06:36:12;22.23;;;20.35;;
22046;SDS011;11187;49.412;20.956;2022-12-11T06:39:00;21.85;;;19.88;;
22046;SDS011;11187;49.412;20.956;2022-12-11T06:41:54;22.42;;;20.45;;
22046;SDS011;11187;49.412;20.956;2022-12-11T06:44:27;22.08;;;20.15;;
22046;SDS011;11187;49.412;20.956;2022-12-11T06:47:14;22.38;;;20.00;;
22046;SDS011;11187;49.412;20.956;2022-12-11T06:49:47;23.33;;;21.23;;
22046;SDS011;11187;49.412;20.956;2022-12-11T06:52:41;22.83;;;20.90;;
22046;SDS011;11187;49.412;20.956;2022-12-11T06:55:35;23.50;;;21.60;;
22046;SDS011;11187;49.412;20.956;2022-12-11T06:58:09;21.70;;;20.00;;
22046;SDS011;11187;49.412;20.956;2022-12-11T07:01:03;22.75;;;20.75;;
22046;SDS011;11187;49.412;20.956;2022-12-11T07:03:57;21.70;;;19.98;;
22046;SDS011;11187;49.412;20.956;2022-12-11T07:06:31;24.17;;;22.17;;
22046;SDS011;11187;49.412;20.956;2022-12-11T07:09:21;22.88;;;21.15;;
22046;SDS011;11187;49.412;20.956;2022-12-11T07:11:56;22.88;;;21.02;;
22046;SDS011;11187;49.412;20.956;2022-12-11T07:14:42;24.25;;;22.15;;
22046;SDS011;11187;49.412;20.956;2022-12-11T07:17:15;21.27;;;19.63;;
22046;SDS011;11187;49.412;20.956;2022-12-11T07:20:02;24.33;;;22.35;;
22046;SDS011;11187;49.412;20.956;2022-12-11T07:22:36;21.83;;;20.02;;
22046;SDS011;11187;49.412;20.956;2022-12-11T07:25:25;22.25;;;20.42;;
22046;SDS011;11187;49.412;20.956;2022-12-11T07:27:59;23.15;;;21.15;;
22046;SDS011;11187;49.412;20.956;2022-12-11T07:30:45;20.75;;;19.05;;
22046;SDS011;11187;49.412;20.956;2022-12-11T07:33:18;20.98;;;19.38;;
22046;SDS011;11187;49.412;20.956;2022-12-11T07:36:06;22.33;;;20.63;;
22046;SDS011;11187;49.412;20.956;2022-12-11T07:38:40;21.88;;;20.23;;
22046;SDS011;11187;49.412;20.956;2022-12-11T07:41:34;21.75;;;19.95;;
22046;SDS011;11187;49.412;20.956;2022-12-11T07:44:28;20.88;;;19.33;;
22046;SDS011;11187;49.412;20.956;2022-12-11T07:47:02;22.13;;;20.45;;
22046;SDS011;11187;49.412;20.956;2022-12-11T07:49:57;21.83;;;20.02;;
22046;SDS011;11187;49.412;20.956;2022-12-11T07:52:31;22.45;;;20.65;;
22046;SDS011;11187;49.412;20.956;2022-12-11T07:55:26;24.08;;;22.08;;
22046;SDS011;11187;49.412;20.956;2022-12-11T07:58:20;26.20;;;24.15;;
22046;SDS011;11187;49.412;20.956;2022-12-11T08:01:15;21.70;;;19.98;;
22046;SDS011;11187;49.412;20.956;2022-12-11T08:04:14;21.25;;;19.65;;
22046;SDS011;11187;49.412;20.956;2022-12-11T08:06:47;20.63;;;19.02;;
22046;SDS011;11187;49.412;20.956;2022-12-11T08:09:34;20.52;;;19.10;;
22046;SDS011;11187;49.412;20.956;2022-12-11T08:12:07;20.45;;;18.90;;
22046;SDS011;11187;49.412;20.956;2022-12-11T08:15:01;20.65;;;18.95;;
22046;SDS011;11187;49.412;20.956;2022-12-11T08:17:35;20.60;;;19.05;;
22046;SDS011;11187;49.412;20.956;2022-12-11T08:20:29;22.63;;;20.65;;
22046;SDS011;11187;49.412;20.956;2022-12-11T08:23:02;20.75;;;19.15;;
22046;SDS011;11187;49.412;20.956;2022-12-11T08:25:49;22.50;;;20.67;;
22046;SDS011;11187;49.412;20.956;2022-12-11T08:28:23;21.98;;;20.33;;
22046;SDS011;11187;49.412;20.956;2022-12-11T08:31:17;20.08;;;18.42;;
22046;SDS011;11187;49.412;20.956;2022-12-11T08:34:11;20.05;;;18.45;;
22046;SDS011;11187;49.412;20.956;2022-12-11T08:37:05;22.35;;;20.50;;
22046;SDS011;11187;49.412;20.956;2022-12-11T08:39:59;21.92;;;20.33;;
22046;SDS011;11187;49.412;20.956;2022-12-11T08:42:53;19.73;;;18.05;;
22046;SDS011;11187;49.412;20.956;2022-12-11T08:45:47;20.10;;;18.50;;
22046;SDS011;11187;49.412;20.956;2022-12-11T08:48:21;24.77;;;22.67;;
22046;SDS011;11187;49.412;20.956;2022-12-11T08:51:09;25.40;;;23.40;;
22046;SDS011;11187;49.412;20.956;2022-12-11T08:53:45;20.77;;;18.97;;
22046;SDS011;11187;49.412;20.956;2022-12-11T08:56:31;22.30;;;20.60;;
22046;SDS011;11187;49.412;20.956;2022-12-11T08:59:05;19.27;;;17.63;;
22046;SDS011;11187;49.412;20.956;2022-12-11T09:01:51;20.65;;;19.15;;
22046;SDS011;11187;49.412;20.956;2022-12-11T09:04:27;21.45;;;19.85;;
22046;SDS011;11187;49.412;20.956;2022-12-11T09:07:16;21.25;;;19.33;;
22046;SDS011;11187;49.412;20.956;2022-12-11T09:09:49;20.85;;;19.27;;
22046;SDS011;11187;49.412;20.956;2022-12-11T09:12:43;23.38;;;21.55;;
22046;SDS011;11187;49.412;20.956;2022-12-11T09:15:40;20.55;;;18.85;;
22046;SDS011;11187;49.412;20.956;2022-12-11T09:18:14;19.77;;;17.95;;
22046;SDS011;11187;49.412;20.956;2022-12-11T09:21:09;21.52;;;19.80;;
22046;SDS011;11187;49.412;20.956;2022-12-11T09:27:27;22.00;;;20.00;;
22046;SDS011;11187;49.412;20.956;2022-12-11T09:30:14;19.75;;;18.15;;
22046;SDS011;11187;49.412;20.956;2022-12-11T09:32:48;19.77;;;18.27;;
22046;SDS011;11187;49.412;20.956;2022-12-11T09:35:34;23.92;;;21.25;;
22046;SDS011;11187;49.412;20.956;2022-12-11T09:38:08;22.10;;;20.15;;
22046;SDS011;11187;49.412;20.956;2022-12-11T09:40:55;20.27;;;18.58;;
22046;SDS011;11187;49.412;20.956;2022-12-11T09:43:40;20.90;;;19.30;;
22046;SDS011;11187;49.412;20.956;2022-12-11T09:46:29;20.13;;;18.52;;
22046;SDS011;11187;49.412;20.956;2022-12-11T09:49:10;21.45;;;19.65;;
22046;SDS011;11187;49.412;20.956;2022-12-11T09:52:11;19.77;;;18.15;;
22046;SDS011;11187;49.412;20.956;2022-12-11T09:54:49;19.70;;;18.13;;
22046;SDS011;11187;49.412;20.956;2022-12-11T10:00:46;16.88;;;15.60;;
22046;SDS011;11187;49.412;20.956;2022-12-11T10:10:42;22.35;;;20.58;;
22046;SDS011;11187;49.412;20.956;2022-12-11T10:13:26;23.02;;;21.33;;
22046;SDS011;11187;49.412;20.956;2022-12-11T10:19:32;20.63;;;18.92;;
22046;SDS011;11187;49.412;20.956;2022-12-11T10:22:17;19.52;;;17.92;;
22046;SDS011;11187;49.412;20.956;2022-12-11T10:25:25;19.70;;;17.98;;
22046;SDS011;11187;49.412;20.956;2022-12-11T10:28:07;19.58;;;17.60;;
22046;SDS011;11187;49.412;20.956;2022-12-11T10:31:09;19.55;;;17.95;;
22046;SDS011;11187;49.412;20.956;2022-12-11T10:33:58;19.77;;;18.38;;
22046;SDS011;11187;49.412;20.956;2022-12-11T10:36:47;18.45;;;17.02;;
22046;SDS011;11187;49.412;20.956;2022-12-11T10:39:25;18.42;;;16.92;;
22046;SDS011;11187;49.412;20.956;2022-12-11T10:42:19;19.40;;;17.63;;
22046;SDS011;11187;49.412;20.956;2022-12-11T10:45:17;18.08;;;16.70;;
22046;SDS011;11187;49.412;20.956;2022-12-11T10:48:11;19.08;;;17.48;;
22046;SDS011;11187;49.412;20.956;2022-12-11T10:50:53;18.55;;;17.25;;
22046;SDS011;11187;49.412;20.956;2022-12-11T10:53:54;19.58;;;18.05;;
22046;SDS011;11187;49.412;20.956;2022-12-11T10:56:33;20.50;;;18.85;;
22046;SDS011;11187;49.412;20.956;2022-12-11T11:01:58;19.20;;;17.40;;
22046;SDS011;11187;49.412;20.956;2022-12-11T11:04:53;17.95;;;16.45;;
22046;SDS011;11187;49.412;20.956;2022-12-11T11:07:47;18.58;;;16.88;;
22046;SDS011;11187;49.412;20.956;2022-12-11T11:10:54;18.30;;;16.40;;
22046;SDS011;11187;49.412;20.956;2022-12-11T11:13:49;21.33;;;19.50;;
22046;SDS011;11187;49.412;20.956;2022-12-11T11:16:45;21.00;;;19.10;;
22046;SDS011;11187;49.412;20.956;2022-12-11T11:19:43;19.17;;;17.55;;
22046;SDS011;11187;49.412;20.956;2022-12-11T11:22:19;24.15;;;22.27;;
22046;SDS011;11187;49.412;20.956;2022-12-11T11:25:18;24.58;;;22.70;;
22046;SDS011;11187;49.412;20.956;2022-12-11T11:28:00;22.85;;;21.02;;
22046;SDS011;11187;49.412;20.956;2022-12-11T11:31:33;22.35;;;20.33;;
22046;SDS011;11187;49.412;20.956;2022-12-11T11:33:54;22.15;;;20.42;;
22046;SDS011;11187;49.412;20.956;2022-12-11T11:36:43;20.15;;;18.15;;
22046;SDS011;11187;49.412;20.956;2022-12-11T11:39:33;21.50;;;19.50;;
22046;SDS011;11187;49.412;20.956;2022-12-11T11:42:27;20.55;;;18.85;;
22046;SDS011;11187;49.412;20.956;2022-12-11T11:45:24;20.25;;;18.65;;
22046;SDS011;11187;49.412;20.956;2022-12-11T11:54:48;21.60;;;19.83;;
22046;SDS011;11187;49.412;20.956;2022-12-11T11:57:59;23.08;;;21.17;;
22046;SDS011;11187;49.412;20.956;2022-12-11T12:00:54;23.58;;;21.60;;
22046;SDS011;11187;49.412;20.956;2022-12-11T12:03:28;21.00;;;19.05;;
22046;SDS011;11187;49.412;20.956;2022-12-11T12:18:29;22.17;;;20.17;;
22046;SDS011;11187;49.412;20.956;2022-12-11T12:21:23;20.50;;;18.60;;
22046;SDS011;11187;49.412;20.956;2022-12-11T12:30:19;24.75;;;22.48;;
22046;SDS011;11187;49.412;20.956;2022-12-11T12:36:03;22.63;;;20.27;;
22046;SDS011;11187;49.412;20.956;2022-12-11T12:39:02;23.58;;;21.52;;
22046;SDS011;11187;49.412;20.956;2022-12-11T12:48:34;24.63;;;22.63;;
22046;SDS011;11187;49.412;20.956;2022-12-11T12:51:08;24.27;;;21.80;;
22046;SDS011;11187;49.412;20.956;2022-12-11T12:54:00;22.98;;;20.58;;
22046;SDS011;11187;49.412;20.956;2022-12-11T12:56:38;24.38;;;22.17;;
22046;SDS011;11187;49.412;20.956;2022-12-11T12:59:26;24.13;;;22.00;;
22046;SDS011;11187;49.412;20.956;2022-12-11T13:02:00;23.58;;;21.58;;
22046;SDS011;11187;49.412;20.956;2022-12-11T13:04:57;21.40;;;19.30;;
22046;SDS011;11187;49.412;20.956;2022-12-11T13:07:35;21.30;;;19.10;;
22046;SDS011;11187;49.412;20.956;2022-12-11T13:10:33;22.30;;;20.05;;
22046;SDS011;11187;49.412;20.956;2022-12-11T13:13:25;25.40;;;22.85;;
22046;SDS011;11187;49.412;20.956;2022-12-11T13:16:35;24.27;;;21.52;;
22046;SDS011;11187;49.412;20.956;2022-12-11T13:19:32;23.92;;;20.33;;
22046;SDS011;11187;49.412;20.956;2022-12-11T13:24:59;23.60;;;21.50;;
22046;SDS011;11187;49.412;20.956;2022-12-11T13:27:48;23.92;;;21.77;;
22046;SDS011;11187;49.412;20.956;2022-12-11T13:30:34;24.35;;;21.95;;
22046;SDS011;11187;49.412;20.956;2022-12-11T13:33:14;22.25;;;19.95;;
22046;SDS011;11187;49.412;20.956;2022-12-11T13:36:50;22.75;;;20.30;;
22046;SDS011;11187;49.412;20.956;2022-12-11T13:39:22;19.95;;;17.85;;
22046;SDS011;11187;49.412;20.956;2022-12-11T13:42:39;21.17;;;18.67;;
22046;SDS011;11187;49.412;20.956;2022-12-11T13:45:55;19.80;;;17.70;;
22046;SDS011;11187;49.412;20.956;2022-12-11T13:51:50;23.33;;;20.85;;
22046;SDS011;11187;49.412;20.956;2022-12-11T13:54:49;24.30;;;18.20;;
22046;SDS011;11187;49.412;20.956;2022-12-11T13:57:25;20.98;;;18.85;;
22046;SDS011;11187;49.412;20.956;2022-12-11T14:00:18;22.38;;;19.02;;
22046;SDS011;11187;49.412;20.956;2022-12-11T14:02:54;19.85;;;17.92;;
22046;SDS011;11187;49.412;20.956;2022-12-11T14:05:43;21.80;;;19.77;;
22046;SDS011;11187;49.412;20.956;2022-12-11T14:08:19;25.25;;;21.92;;
22046;SDS011;11187;49.412;20.956;2022-12-11T14:11:17;19.85;;;17.67;;
22046;SDS011;11187;49.412;20.956;2022-12-11T14:13:58;25.38;;;22.77;;
22046;SDS011;11187;49.412;20.956;2022-12-11T14:16:48;23.83;;;21.42;;
22046;SDS011;11187;49.412;20.956;2022-12-11T14:19:22;20.67;;;18.45;;
22046;SDS011;11187;49.412;20.956;2022-12-11T14:22:15;22.70;;;19.13;;
22046;SDS011;11187;49.412;20.956;2022-12-11T14:24:52;25.20;;;20.17;;
22046;SDS011;11187;49.412;20.956;2022-12-11T14:27:54;22.73;;;18.52;;
22046;SDS011;11187;49.412;20.956;2022-12-11T14:30:31;26.33;;;19.63;;
22046;SDS011;11187;49.412;20.956;2022-12-11T14:33:22;22.75;;;19.42;;
22046;SDS011;11187;49.412;20.956;2022-12-11T14:36:03;21.08;;;18.98;;
22046;SDS011;11187;49.412;20.956;2022-12-11T14:38:53;21.63;;;19.42;;
22046;SDS011;11187;49.412;20.956;2022-12-11T14:41:59;22.45;;;19.48;;
22046;SDS011;11187;49.412;20.956;2022-12-11T14:47:38;20.70;;;17.63;;
22046;SDS011;11187;49.412;20.956;2022-12-11T14:53:06;22.67;;;18.52;;
22046;SDS011;11187;49.412;20.956;2022-12-11T14:56:00;21.77;;;18.70;;
22046;SDS011;11187;49.412;20.956;2022-12-11T14:58:39;26.80;;;19.15;;
22046;SDS011;11187;49.412;20.956;2022-12-11T15:01:34;24.85;;;22.23;;
22046;SDS011;11187;49.412;20.956;2022-12-11T15:07:23;23.00;;;20.33;;
22046;SDS011;11187;49.412;20.956;2022-12-11T15:09:57;20.98;;;18.25;;
22046;SDS011;11187;49.412;20.956;2022-12-11T15:12:50;21.45;;;19.30;;
22046;SDS011;11187;49.412;20.956;2022-12-11T15:15:45;22.33;;;20.08;;
22046;SDS011;11187;49.412;20.956;2022-12-11T15:18:40;23.13;;;20.02;;
22046;SDS011;11187;49.412;20.956;2022-12-11T15:21:14;21.45;;;19.27;;
22046;SDS011;11187;49.412;20.956;2022-12-11T15:24:02;22.13;;;18.45;;
22046;SDS011;11187;49.412;20.956;2022-12-11T15:26:43;20.70;;;18.52;;
22046;SDS011;11187;49.412;20.956;2022-12-11T15:29:40;21.75;;;19.55;;
22046;SDS011;11187;49.412;20.956;2022-12-11T15:32:15;23.80;;;20.20;;
22046;SDS011;11187;49.412;20.956;2022-12-11T15:35:19;22.45;;;20.20;;
22046;SDS011;11187;49.412;20.956;2022-12-11T15:37:54;22.27;;;19.77;;
22046;SDS011;11187;49.412;20.956;2022-12-11T15:40:49;21.25;;;18.77;;
22046;SDS011;11187;49.412;20.956;2022-12-11T15:43:43;23.90;;;20.73;;
22046;SDS011;11187;49.412;20.956;2022-12-11T15:46:44;25.88;;;22.08;;
22046;SDS011;11187;49.412;20.956;2022-12-11T15:49:38;23.90;;;20.42;;
22046;SDS011;11187;49.412;20.956;2022-12-11T15:52:32;23.58;;;21.08;;
22046;SDS011;11187;49.412;20.956;2022-12-11T15:55:06;25.95;;;21.30;;
22046;SDS011;11187;49.412;20.956;2022-12-11T15:58:06;24.38;;;21.92;;
22046;SDS011;11187;49.412;20.956;2022-12-11T16:00:44;27.15;;;24.35;;
22046;SDS011;11187;49.412;20.956;2022-12-11T16:03:37;26.73;;;23.98;;
22046;SDS011;11187;49.412;20.956;2022-12-11T16:06:11;24.58;;;22.08;;
22046;SDS011;11187;49.412;20.956;2022-12-11T16:08:58;24.10;;;20.30;;
22046;SDS011;11187;49.412;20.956;2022-12-11T16:11:32;22.92;;;20.50;;
22046;SDS011;11187;49.412;20.956;2022-12-11T16:14:25;25.58;;;22.05;;
22046;SDS011;11187;49.412;20.956;2022-12-11T16:16:59;26.33;;;22.85;;
22046;SDS011;11187;49.412;20.956;2022-12-11T16:19:45;23.67;;;20.88;;
22046;SDS011;11187;49.412;20.956;2022-12-11T16:22:19;31.30;;;23.67;;
22046;SDS011;11187;49.412;20.956;2022-12-11T16:25:12;26.05;;;21.15;;
22046;SDS011;11187;49.412;20.956;2022-12-11T16:27:46;24.88;;;22.05;;
22046;SDS011;11187;49.412;20.956;2022-12-11T16:30:39;27.50;;;22.02;;
22046;SDS011;11187;49.412;20.956;2022-12-11T16:33:34;23.27;;;20.85;;
22046;SDS011;11187;49.412;20.956;2022-12-11T16:36:28;26.85;;;23.70;;
22046;SDS011;11187;49.412;20.956;2022-12-11T16:39:02;36.10;;;23.85;;
22046;SDS011;11187;49.412;20.956;2022-12-11T16:41:49;31.63;;;23.45;;
22046;SDS011;11187;49.412;20.956;2022-12-11T16:44:23;26.17;;;23.30;;
22046;SDS011;11187;49.412;20.956;2022-12-11T16:47:11;26.83;;;24.00;;
22046;SDS011;11187;49.412;20.956;2022-12-11T16:49:45;28.38;;;22.08;;
22046;SDS011;11187;49.412;20.956;2022-12-11T16:52:31;27.77;;;23.52;;
22046;SDS011;11187;49.412;20.956;2022-12-11T16:55:05;28.17;;;23.20;;
22046;SDS011;11187;49.412;20.956;2022-12-11T16:57:53;28.85;;;22.17;;
22046;SDS011;11187;49.412;20.956;2022-12-11T17:00:27;29.90;;;22.42;;
22046;SDS011;11187;49.412;20.956;2022-12-11T17:03:13;28.55;;;22.30;;
22046;SDS011;11187;49.412;20.956;2022-12-11T17:05:48;27.85;;;21.65;;
22046;SDS011;11187;49.412;20.956;2022-12-11T17:08:35;26.88;;;21.88;;
22046;SDS011;11187;49.412;20.956;2022-12-11T17:11:10;25.40;;;22.08;;
22046;SDS011;11187;49.412;20.956;2022-12-11T17:14:08;26.83;;;23.02;;
22046;SDS011;11187;49.412;20.956;2022-12-11T17:17:02;25.98;;;20.85;;